LFPN 231430Z AUTO 08006KT 030V110 CAVOK 15/03 Q1032 NOSIG

ElémentsDécodage
LFPN Station météo située sur l'aérodrome de TOUSSUS-LE-NOBLE
231430Z émis le 23 du mois à 14h30 UTC
AUTO Bulletin édité par un automate
08006KT vent du 080°, 06 noeuds
030V110 vent de direction variable entre 030° et 110°
CAVOK Ceiling And Visibility OK
- Visibilité de 10 Km ou plus
- Pas de nuage au-dessous de 1500m ou au-dessous de l'altitude minimale du secteur la plus élevée (si>1500m) et absence de CB
- pas de temps présent significatif
15/03 température 15°C, point de rosée 03°C
 soit une humidité relative de 44%
Q1032 la pression au niveau de la mer (QNH) est de 1032 hPa
NOSIG Pas de changement significatif prévu au cours des deux heures suivant l'heure de l'observation